Search for airport 
image banner adimage banner adimage banner ad
image banner ad

6IA2 - Jennie Edmundson Hospital

Located in Council Bluffs, United States

ICAO - 6IA2, IATA -

Data provided by Airmate  

General information

Coordinates: N41°16'10" W95°50'4"
Elevation is 1000 feet MSL.
Magnetic variation is 05° East
View others Airports in Iowa

Operational data

Special qualification required
Current time UTC:
Current local time:
Weather at : KOMA - Eppley Airfield ( 6 km )
METAR: KOMA 181652Z 10012KT 10SM SCT040 BKN150 BKN250 28/19 A2982 RMK AO2 RAB17E27 PRESFR SLP088 P0000 T02830194
TAF: KOMA 181125Z 1812/1912 36015G25KT P6SM SHRA VCTS BKN050CB BKN200 FM181230 06012KT P6SM SCT100 BKN200 FM181400 10010KT P6SM SCT200 FM182100 06010KT P6SM SCT080 SCT250
View NOTAMs / SUP AIP / TFR affecting this airport [VIEW]
Communications frequencies: [VIEW]

Runways:

Airport contact information

Address: Council Bluffs United States

Satellite view of 6IA2